PrentiSS Brown — WDE6848 — position and weather

sailwx.info

Track history (hours):
 
Tides and Currents Weather Stations Pressure Air Temp Water Temp Dewpoint Dewpoint Depression Visibility Wind Speed Wind Dir Waves Ship Positions

PrentiSS Brown

Owner: Port City Marine Services Inc, Muskegon, MI. More information available from US FCC via Universal Licensing System and Coast Guard Vessel Documentation Center.

Last reported at 2016-Jul-29 12:34 UTC. Time now 2016-Jul-30 16:54 UTC.
Position N 45°14' W 085°35'.

; draft 5.3 m.

Type: Other ship. MMSI: 366922280.

Date/timePositionNaut miles runAvg speedWind from/ knotsBaromVisibWave heightAir tempDewpointWater temp
2016-Jul-29 12:34N 45°14' W 085°35'8 8.2
2016-Jul-29 11:34N 45°18' W 085°25'6 5.5
2016-Jul-29 10:33N 45°19' W 085°17'0 0.3
2016-Jul-29 09:34N 45°19' W 085°18'0 0.0
2016-Jul-29 08:33N 45°19' W 085°18'0 0.0
2016-Jul-29 07:33N 45°19' W 085°18'0 0.0
2016-Jul-29 06:33N 45°19' W 085°18'0 0.0
2016-Jul-29 05:33N 45°19' W 085°18'0 0.0
2016-Jul-29 04:34N 45°19' W 085°18'0 0.0
2016-Jul-29 03:33N 45°19' W 085°18'4 3.6
2016-Jul-29 02:34N 45°19' W 085°23'9 8.1
2016-Jul-29 01:30N 45°15' W 085°34'8 8.0
2016-Jul-29 00:33N 45°10' W 085°43'  
2016-Jul-25 10:34N 45°14' W 085°37'8 8.0
2016-Jul-25 09:33N 45°18' W 085°26'7 6.7
2016-Jul-25 08:33N 45°19' W 085°17'0 0.4
2016-Jul-25 07:33N 45°19' W 085°18'0 0.0
2016-Jul-25 06:33N 45°19' W 085°18'0 0.0
2016-Jul-25 05:33N 45°19' W 085°18'0 0.0
2016-Jul-25 04:33N 45°19' W 085°18'0 0.0
2016-Jul-25 03:33N 45°19' W 085°18'1 1.3
2016-Jul-25 02:34N 45°20' W 085°19'  
2016-Jul-21 22:32N 45°13' W 085°39'7 7.3
2016-Jul-21 21:33N 45°16' W 085°30'7 7.5
2016-Jul-21 20:34N 45°20' W 085°20'2 2.0
2016-Jul-21 19:34N 45°19' W 085°18'0 0.0
2016-Jul-21 18:33N 45°19' W 085°18'0 0.0
2016-Jul-21 17:34N 45°19' W 085°18'0 0.0
2016-Jul-21 16:34N 45°19' W 085°18'0 0.0
2016-Jul-21 15:33N 45°19' W 085°18'0 0.0
2016-Jul-21 14:34N 45°19' W 085°18'0 0.0
2016-Jul-21 13:34N 45°19' W 085°18'1 0.6
2016-Jul-21 12:33N 45°19' W 085°17'7 7.6
2016-Jul-21 11:34N 45°17' W 085°27'  
Track history (hours):
 
Tides and Currents Weather Stations Pressure Air Temp Water Temp Dewpoint Dewpoint Depression Visibility Wind Speed Wind Dir Waves Ship Positions

PrentiSS Brown

Owner: Port City Marine Services Inc, Muskegon, MI. More information available from US FCC via Universal Licensing System and Coast Guard Vessel Documentation Center.

Last reported at 2016-Jul-29 12:34 UTC. Time now 2016-Jul-30 16:54 UTC.
Position N 45°14' W 085°35'.

; draft 5.3 m.

Type: Other ship. MMSI: 366922280.

Date/timePositionNaut miles runAvg speedWind from/ knotsBaromVisibWave heightAir tempDewpointWater temp
2016-Jul-29 12:34N 45°14' W 085°35'8 8.2
2016-Jul-29 11:34N 45°18' W 085°25'6 5.5
2016-Jul-29 10:33N 45°19' W 085°17'0 0.3
2016-Jul-29 09:34N 45°19' W 085°18'0 0.0
2016-Jul-29 08:33N 45°19' W 085°18'0 0.0
2016-Jul-29 07:33N 45°19' W 085°18'0 0.0
2016-Jul-29 06:33N 45°19' W 085°18'0 0.0
2016-Jul-29 05:33N 45°19' W 085°18'0 0.0
2016-Jul-29 04:34N 45°19' W 085°18'0 0.0
2016-Jul-29 03:33N 45°19' W 085°18'4 3.6
2016-Jul-29 02:34N 45°19' W 085°23'9 8.1
2016-Jul-29 01:30N 45°15' W 085°34'8 8.0
2016-Jul-29 00:33N 45°10' W 085°43'  
2016-Jul-25 10:34N 45°14' W 085°37'8 8.0
2016-Jul-25 09:33N 45°18' W 085°26'7 6.7
2016-Jul-25 08:33N 45°19' W 085°17'0 0.4
2016-Jul-25 07:33N 45°19' W 085°18'0 0.0
2016-Jul-25 06:33N 45°19' W 085°18'0 0.0
2016-Jul-25 05:33N 45°19' W 085°18'0 0.0
2016-Jul-25 04:33N 45°19' W 085°18'0 0.0
2016-Jul-25 03:33N 45°19' W 085°18'1 1.3
2016-Jul-25 02:34N 45°20' W 085°19'  
2016-Jul-21 22:32N 45°13' W 085°39'7 7.3
2016-Jul-21 21:33N 45°16' W 085°30'7 7.5
2016-Jul-21 20:34N 45°20' W 085°20'2 2.0
2016-Jul-21 19:34N 45°19' W 085°18'0 0.0
2016-Jul-21 18:33N 45°19' W 085°18'0 0.0
2016-Jul-21 17:34N 45°19' W 085°18'0 0.0
2016-Jul-21 16:34N 45°19' W 085°18'0 0.0
2016-Jul-21 15:33N 45°19' W 085°18'0 0.0
2016-Jul-21 14:34N 45°19' W 085°18'0 0.0
2016-Jul-21 13:34N 45°19' W 085°18'1 0.6
2016-Jul-21 12:33N 45°19' W 085°17'7 7.6
2016-Jul-21 11:34N 45°17' W 085°27'  

Dump ship's entire track history